Borzja, Russia
Current Conditions -  °F | °C
As of 3:00 PM on Sunday 23 Nov 2014 (Local Time) from UIAA Reporting Station
Clear Clear  
Wind Chill: 15°   Ceiling: Unl
Heat Index: 25°   Visibility: 6mi
Dew Point:   Wind: 9mph
Humidity: 50%   Direction: 210°SSW
Pressure: 30.06"   Gusts: NA
Location:  50.38°N, 116.52°E
Report Text: UIAA 230600Z 21004MPS 9999 SKC M04/M13 Q1018 NOSIG RMK QFE70529CLRD70
Loading
Personal Weather Stations






























Interactive Weather Map New forecast layout! Learn more

10-Day Weather Forecast

Advertisements
Track Severe Weather on mobile